Time;durP1;ratioP1;P1;durP2;ratioP2;P2;SDS_P1;SDS_P2;PMS_P1;PMS_P2;Temp;Humidity;BMP_temperature;BMP_pressure;BME280_temperature;BME280_humidity;BME280_pressure;Samples;Min_cycle;Max_cycle;Signal;HPM_P1;HPM_P2
2024/03/25 00:00:22;;;;;;;38.75;36.65;;;;;;;;;;4921222;29;20031;-92
2024/03/25 00:02:55;;;;;;;39.17;37.00;;;;;;;;;;4927800;29;20050;-93
2024/03/25 00:05:32;;;;;;;46.00;43.53;;;;;;;;;;4970685;28;20047;-93
2024/03/25 00:08:01;;;;;;;46.50;44.00;;;;;;;;;;4958793;28;20043;-94
2024/03/25 00:10:30;;;;;;;40.55;38.28;;;;;;;;;;4948935;29;20027;-94
2024/03/25 00:12:56;;;;;;;38.88;36.78;;;;;;;;;;4952889;28;20033;-92
2024/03/25 00:15:26;;;;;;;42.78;40.47;;;;;;;;;;4963111;28;20027;-93
2024/03/25 00:17:52;;;;;;;38.15;36.05;;;;;;;;;;4959900;28;20030;-94
2024/03/25 00:20:18;;;;;;;37.35;35.30;;;;;;;;;;4959129;28;20027;-95
2024/03/25 00:22:45;;;;;;;33.05;31.25;;;;;;;;;;4959413;28;20432;-91
2024/03/25 00:25:11;;;;;;;37.33;35.20;;;;;;;;;;4959859;28;20488;-95
2024/03/25 00:27:38;;;;;;;34.20;32.22;;;;;;;;;;4958906;28;20117;-91
2024/03/25 00:30:04;;;;;;;42.70;40.22;;;;;;;;;;4959248;28;20148;-93
2024/03/25 00:32:31;;;;;;;41.05;38.75;;;;;;;;;;4959051;28;20023;-93
2024/03/25 00:34:57;;;;;;;36.83;34.83;;;;;;;;;;4959000;28;20027;-91
2024/03/25 00:37:24;;;;;;;32.47;30.70;;;;;;;;;;4953832;29;20027;-94
2024/03/25 00:39:50;;;;;;;33.42;31.42;;;;;;;;;;4939659;29;20035;-93
2024/03/25 00:42:16;;;;;;;33.58;31.55;;;;;;;;;;4939687;29;20048;-93
2024/03/25 00:44:42;;;;;;;36.10;34.00;;;;;;;;;;4954657;28;20015;-92
2024/03/25 00:47:08;;;;;;;37.35;35.17;;;;;;;;;;4955995;28;20061;-93
2024/03/25 00:49:35;;;;;;;30.67;28.98;;;;;;;;;;4961188;28;20027;-93
2024/03/25 00:52:04;;;;;;;35.95;33.85;;;;;;;;;;4959016;28;20027;-94
2024/03/25 00:54:31;;;;;;;30.27;28.45;;;;;;;;;;4958902;28;20038;-92
2024/03/25 00:56:57;;;;;;;32.88;30.58;;;;;;;;;;4958775;28;20025;-93
2024/03/25 00:59:23;;;;;;;33.00;30.92;;;;;;;;;;4958579;28;20472;-92
2024/03/25 01:01:49;;;;;;;36.55;34.35;;;;;;;;;;4958510;28;20065;-93
2024/03/25 01:04:15;;;;;;;34.20;31.95;;;;;;;;;;4958472;28;20027;-93
2024/03/25 01:06:42;;;;;;;34.40;32.40;;;;;;;;;;4958454;28;20027;-93
2024/03/25 01:09:08;;;;;;;32.15;30.30;;;;;;;;;;4958494;28;20057;-93
2024/03/25 01:14:37;;;;;;;28.33;26.77;;;;;;;;;;5001630;23;20515;-94
2024/03/25 01:17:04;;;;;;;33.88;31.95;;;;;;;;;;4958348;28;20149;-93
2024/03/25 01:19:30;;;;;;;35.53;33.53;;;;;;;;;;4958614;28;20046;-91
2024/03/25 01:21:56;;;;;;;33.63;31.73;;;;;;;;;;4958286;28;20038;-93
2024/03/25 01:24:22;;;;;;;42.22;39.78;;;;;;;;;;4973330;28;20026;-93
2024/03/25 01:26:48;;;;;;;37.35;35.28;;;;;;;;;;4977526;28;20435;-93
2024/03/25 01:29:15;;;;;;;35.03;33.00;;;;;;;;;;4977908;28;20476;-92
2024/03/25 01:31:41;;;;;;;38.40;36.20;;;;;;;;;;4977793;28;20022;-94
2024/03/25 01:34:07;;;;;;;34.05;32.10;;;;;;;;;;4977619;28;20064;-92
2024/03/25 01:36:34;;;;;;;37.63;35.58;;;;;;;;;;4983487;28;20029;-92
2024/03/25 01:39:00;;;;;;;40.15;37.95;;;;;;;;;;4981113;28;20031;-95
2024/03/25 01:41:26;;;;;;;42.00;39.70;;;;;;;;;;4980731;28;20022;-95
2024/03/25 01:43:53;;;;;;;48.55;45.72;;;;;;;;;;4980551;28;20046;-93
2024/03/25 01:46:19;;;;;;;40.67;38.30;;;;;;;;;;4981780;28;20040;-95
2024/03/25 01:48:45;;;;;;;35.83;33.75;;;;;;;;;;4978808;28;20030;-94
2024/03/25 01:51:13;;;;;;;34.03;32.08;;;;;;;;;;4977745;28;20019;-94
2024/03/25 01:53:39;;;;;;;42.78;40.42;;;;;;;;;;4979196;28;20053;-94
2024/03/25 01:56:06;;;;;;;39.35;37.15;;;;;;;;;;4980225;28;20480;-94
2024/03/25 01:58:32;;;;;;;42.05;39.55;;;;;;;;;;4978789;28;20495;-95
2024/03/25 02:01:01;;;;;;;40.97;38.60;;;;;;;;;;4979555;28;20033;-94
2024/03/25 02:03:27;;;;;;;46.00;43.55;;;;;;;;;;4979371;28;20043;-92
2024/03/25 02:05:56;;;;;;;40.65;38.38;;;;;;;;;;4978500;28;20148;-93
2024/03/25 02:08:23;;;;;;;36.67;34.55;;;;;;;;;;4978915;28;20033;-91
2024/03/25 02:10:49;;;;;;;43.28;40.88;;;;;;;;;;4978807;28;20026;-94
2024/03/25 02:13:16;;;;;;;37.05;34.95;;;;;;;;;;4981087;28;20441;-92
2024/03/25 02:15:42;;;;;;;34.78;32.80;;;;;;;;;;4968702;28;20046;-95
2024/03/25 02:18:09;;;;;;;39.90;37.60;;;;;;;;;;4961972;28;20042;-95
2024/03/25 02:20:35;;;;;;;37.33;35.15;;;;;;;;;;4964005;28;20054;-92
2024/03/25 02:23:01;;;;;;;35.80;33.80;;;;;;;;;;4963472;28;20045;-94
2024/03/25 02:25:27;;;;;;;37.05;35.05;;;;;;;;;;4963150;28;20027;-95
2024/03/25 02:28:01;;;;;;;41.78;39.42;;;;;;;;;;4969552;28;20035;-94
2024/03/25 02:30:36;;;;;;;36.55;34.45;;;;;;;;;;4979755;28;20035;-92
2024/03/25 02:33:08;;;;;;;36.70;34.70;;;;;;;;;;4968398;28;20066;-94
2024/03/25 02:35:35;;;;;;;35.83;33.90;;;;;;;;;;4962810;28;20027;-93
2024/03/25 02:38:10;;;;;;;41.03;38.78;;;;;;;;;;4962264;28;20031;-95
2024/03/25 02:40:42;;;;;;;38.45;36.40;;;;;;;;;;4964881;28;20078;-94
2024/03/25 02:43:08;;;;;;;41.63;39.33;;;;;;;;;;4962047;28;20062;-95
2024/03/25 02:45:36;;;;;;;39.75;37.63;;;;;;;;;;4962848;28;20034;-95
2024/03/25 02:48:04;;;;;;;36.05;33.95;;;;;;;;;;4962755;28;20035;-95
2024/03/25 02:50:30;;;;;;;39.03;36.92;;;;;;;;;;4962662;28;20030;-94
2024/03/25 02:52:56;;;;;;;36.53;34.58;;;;;;;;;;4962241;28;20034;-93
2024/03/25 02:55:22;;;;;;;42.72;40.38;;;;;;;;;;4961246;28;20037;-94
2024/03/25 02:57:48;;;;;;;35.70;33.78;;;;;;;;;;4960758;28;20035;-94
2024/03/25 03:00:14;;;;;;;39.80;37.60;;;;;;;;;;4961954;28;20035;-93
2024/03/25 03:02:40;;;;;;;37.28;35.28;;;;;;;;;;4961482;28;20034;-94
2024/03/25 03:05:07;;;;;;;34.38;32.47;;;;;;;;;;4960984;28;20125;-92
2024/03/25 03:07:34;;;;;;;37.25;35.28;;;;;;;;;;4978668;28;20037;-92
2024/03/25 03:10:00;;;;;;;40.13;37.95;;;;;;;;;;4962654;28;20027;-95
2024/03/25 03:12:26;;;;;;;33.75;31.90;;;;;;;;;;4961942;28;20027;-93
2024/03/25 03:14:52;;;;;;;38.13;36.10;;;;;;;;;;4969891;28;20050;-95
2024/03/25 03:17:19;;;;;;;37.92;35.85;;;;;;;;;;4980545;28;20026;-92
2024/03/25 03:19:45;;;;;;;39.53;37.22;;;;;;;;;;5001446;28;20026;-91
2024/03/25 03:22:12;;;;;;;38.58;36.38;;;;;;;;;;4995499;28;20038;-94
2024/03/25 03:24:38;;;;;;;36.60;34.60;;;;;;;;;;4988741;28;20535;-91
2024/03/25 03:27:04;;;;;;;43.03;40.70;;;;;;;;;;4984185;28;20032;-96
2024/03/25 03:29:30;;;;;;;37.03;35.03;;;;;;;;;;4980057;28;20027;-94
2024/03/25 03:31:57;;;;;;;43.10;40.80;;;;;;;;;;4980686;28;20481;-95
2024/03/25 03:34:23;;;;;;;38.88;36.67;;;;;;;;;;4980550;28;20022;-95
2024/03/25 03:36:49;;;;;;;43.53;41.22;;;;;;;;;;4979133;28;20476;-92
2024/03/25 03:39:16;;;;;;;40.70;38.38;;;;;;;;;;4979658;28;20030;-95
2024/03/25 03:41:42;;;;;;;37.03;35.00;;;;;;;;;;4980025;28;20113;-94
2024/03/25 03:44:09;;;;;;;33.92;32.03;;;;;;;;;;4979456;28;20034;-92
2024/03/25 03:46:35;;;;;;;37.80;35.70;;;;;;;;;;4979577;28;20027;-94
2024/03/25 03:49:01;;;;;;;30.13;28.42;;;;;;;;;;4980549;28;20026;-94
2024/03/25 03:51:28;;;;;;;25.25;23.83;;;;;;;;;;4996979;28;20031;-93
2024/03/25 03:53:54;;;;;;;35.58;33.45;;;;;;;;;;4979234;28;20034;-94
2024/03/25 03:56:20;;;;;;;34.72;32.85;;;;;;;;;;4979071;28;20037;-95
2024/03/25 03:58:47;;;;;;;33.05;31.25;;;;;;;;;;4979281;28;20037;-94
2024/03/25 04:01:19;;;;;;;36.40;34.30;;;;;;;;;;4979212;28;20373;-94
2024/03/25 04:03:45;;;;;;;37.73;35.53;;;;;;;;;;4979492;28;20034;-94
2024/03/25 04:06:13;;;;;;;35.42;33.53;;;;;;;;;;4979380;28;20526;-92
2024/03/25 04:08:39;;;;;;;38.55;36.38;;;;;;;;;;4980431;28;20054;-93
2024/03/25 04:11:06;;;;;;;34.78;32.88;;;;;;;;;;4980964;28;20471;-94
2024/03/25 04:13:35;;;;;;;37.78;35.72;;;;;;;;;;4982560;28;20026;-95
2024/03/25 04:16:09;;;;;;;35.28;33.35;;;;;;;;;;5000295;28;20057;-92
2024/03/25 04:18:35;;;;;;;39.17;37.08;;;;;;;;;;4987609;28;20030;-94
2024/03/25 04:21:07;;;;;;;34.58;32.67;;;;;;;;;;4982435;28;20030;-94
2024/03/25 04:23:33;;;;;;;38.67;36.53;;;;;;;;;;4980820;28;20061;-94
2024/03/25 04:26:04;;;;;;;37.28;35.08;;;;;;;;;;4980103;28;20037;-93
2024/03/25 04:28:36;;;;;;;36.00;34.00;;;;;;;;;;4979780;28;20054;-96
2024/03/25 04:31:12;;;;;;;34.50;32.58;;;;;;;;;;4979391;28;20030;-94
2024/03/25 04:33:38;;;;;;;36.05;33.97;;;;;;;;;;4979748;28;20027;-93
2024/03/25 04:36:04;;;;;;;33.90;31.88;;;;;;;;;;4978642;28;20030;-96
2024/03/25 04:38:49;;;;;;;40.85;38.60;;;;;;;;;;4978398;28;20041;-94
2024/03/25 04:41:16;;;;;;;32.63;30.75;;;;;;;;;;4978666;28;20055;-95
2024/03/25 04:43:42;;;;;;;31.17;29.30;;;;;;;;;;4984060;28;20061;-95
2024/03/25 04:49:12;;;;;;;25.85;24.35;;;;;;;;;;4996088;28;20069;-95
2024/03/25 04:51:38;;;;;;;29.85;28.17;;;;;;;;;;4978751;28;20023;-95
2024/03/25 04:54:04;;;;;;;35.95;33.75;;;;;;;;;;4979259;28;20054;-95
2024/03/25 04:56:31;;;;;;;27.45;25.85;;;;;;;;;;4979052;28;20023;-95
2024/03/25 04:59:01;;;;;;;29.48;27.75;;;;;;;;;;4978207;28;20034;-95
2024/03/25 05:01:31;;;;;;;34.63;32.65;;;;;;;;;;4978230;28;20116;-95
2024/03/25 05:04:02;;;;;;;31.60;29.80;;;;;;;;;;4977826;28;20446;-92
2024/03/25 05:06:35;;;;;;;32.97;31.17;;;;;;;;;;4977842;28;20034;-92
2024/03/25 05:09:07;;;;;;;32.22;30.42;;;;;;;;;;4978021;28;20403;-95
2024/03/25 05:11:39;;;;;;;25.83;24.38;;;;;;;;;;4978984;28;20087;-91
2024/03/25 05:14:05;;;;;;;27.23;25.60;;;;;;;;;;4979517;28;20078;-92
2024/03/25 05:16:31;;;;;;;31.63;29.88;;;;;;;;;;4979792;28;20096;-92
2024/03/25 05:18:58;;;;;;;37.28;35.22;;;;;;;;;;4978211;28;20034;-92
2024/03/25 05:21:24;;;;;;;31.80;30.10;;;;;;;;;;4977910;28;20027;-93
2024/03/25 05:23:50;;;;;;;38.20;36.10;;;;;;;;;;4978135;28;20159;-94
2024/03/25 05:26:22;;;;;;;35.53;33.55;;;;;;;;;;4979265;28;20026;-96
2024/03/25 05:28:53;;;;;;;33.38;31.48;;;;;;;;;;4981870;28;20037;-96
2024/03/25 05:31:25;;;;;;;30.02;28.23;;;;;;;;;;4986523;28;20026;-95
2024/03/25 05:33:52;;;;;;;31.63;29.80;;;;;;;;;;4980694;28;20034;-94
2024/03/25 05:36:21;;;;;;;33.00;31.10;;;;;;;;;;4980919;28;20038;-94
2024/03/25 05:38:50;;;;;;;33.92;31.92;;;;;;;;;;4984274;28;20034;-92
2024/03/25 05:41:16;;;;;;;28.88;27.17;;;;;;;;;;4985129;28;20030;-95
2024/03/25 05:43:58;;;;;;;27.10;25.40;;;;;;;;;;4983774;28;20038;-92
2024/03/25 05:46:29;;;;;;;30.13;28.25;;;;;;;;;;4981022;28;20038;-93
2024/03/25 05:48:58;;;;;;;29.88;28.17;;;;;;;;;;4978326;28;20026;-92
2024/03/25 05:51:33;;;;;;;30.98;29.15;;;;;;;;;;4978166;28;20483;-93
2024/03/25 05:54:05;;;;;;;28.48;26.83;;;;;;;;;;4978275;28;20034;-92
2024/03/25 05:56:31;;;;;;;28.50;26.80;;;;;;;;;;4979999;28;20500;-94
2024/03/25 05:59:01;;;;;;;29.05;27.17;;;;;;;;;;4981291;28;20050;-92
2024/03/25 06:01:30;;;;;;;31.08;29.10;;;;;;;;;;5002909;28;20049;-94
2024/03/25 06:03:59;;;;;;;35.55;33.42;;;;;;;;;;4989893;28;20042;-92
2024/03/25 06:23:55;;;;;;;32.67;30.83;;;;;;;;;;4952365;28;20127;-95
2024/03/25 06:29:46;;;;;;;27.40;25.60;;;;;;;;;;5010910;23;20067;-96
2024/03/25 06:35:01;;;;;;;29.95;28.10;;;;;;;;;;5001819;28;20107;-94
2024/03/25 06:37:30;;;;;;;22.05;20.75;;;;;;;;;;4974472;28;20045;-91
2024/03/25 06:40:06;;;;;;;20.13;18.85;;;;;;;;;;4967439;28;20027;-94
2024/03/25 06:42:35;;;;;;;20.70;19.42;;;;;;;;;;4965292;28;20035;-93
2024/03/25 06:45:07;;;;;;;22.92;21.58;;;;;;;;;;4964205;28;20049;-92
2024/03/25 06:47:45;;;;;;;21.23;19.80;;;;;;;;;;4963145;28;20022;-96
2024/03/25 06:50:18;;;;;;;29.60;27.85;;;;;;;;;;4963344;28;20026;-96
2024/03/25 06:52:44;;;;;;;24.52;22.92;;;;;;;;;;4963300;28;20027;-94
2024/03/25 06:55:18;;;;;;;44.80;42.33;;;;;;;;;;4962370;28;20121;-95
2024/03/25 06:57:47;;;;;;;30.63;28.88;;;;;;;;;;4958646;28;20088;-96
2024/03/25 07:00:26;;;;;;;27.15;25.35;;;;;;;;;;4964368;28;20027;-94
2024/03/25 07:02:55;;;;;;;35.30;33.15;;;;;;;;;;4965818;28;20044;-94
2024/03/25 07:05:24;;;;;;;26.00;24.40;;;;;;;;;;4972802;28;20019;-96
2024/03/25 07:07:57;;;;;;;12.55;11.75;;;;;;;;;;4956292;28;20090;-94
2024/03/25 07:11:03;;;;;;;13.80;12.90;;;;;;;;;;5389132;23;20058;-93
2024/03/25 07:14:01;;;;;;;10.30;9.60;;;;;;;;;;4920581;29;20055;-94
2024/03/25 07:16:36;;;;;;;18.95;17.80;;;;;;;;;;4906676;29;20032;-93
2024/03/25 07:19:14;;;;;;;24.65;23.20;;;;;;;;;;4894919;29;20037;-94
2024/03/25 07:21:43;;;;;;;23.60;22.13;;;;;;;;;;4867043;29;20514;-92
2024/03/25 07:24:12;;;;;;;24.35;22.88;;;;;;;;;;4866914;29;20045;-96
2024/03/25 07:26:41;;;;;;;27.63;25.88;;;;;;;;;;4866779;29;20395;-91
2024/03/25 07:29:11;;;;;;;27.52;25.83;;;;;;;;;;4865943;29;20043;-94
2024/03/25 07:31:40;;;;;;;34.78;32.58;;;;;;;;;;4866483;29;20603;-93
2024/03/25 07:34:18;;;;;;;36.28;34.08;;;;;;;;;;4856930;29;20057;-94
2024/03/25 07:36:48;;;;;;;30.38;28.50;;;;;;;;;;4868099;29;20036;-95
2024/03/25 07:39:18;;;;;;;32.30;30.25;;;;;;;;;;4919202;29;20032;-94
2024/03/25 07:41:46;;;;;;;34.03;32.03;;;;;;;;;;4906491;29;20383;-94
2024/03/25 07:44:15;;;;;;;38.65;36.42;;;;;;;;;;4912158;29;20051;-90
2024/03/25 07:46:51;;;;;;;42.63;40.20;;;;;;;;;;4915389;29;20063;-93
2024/03/25 07:49:23;;;;;;;26.23;24.63;;;;;;;;;;4904201;29;20044;-94
2024/03/25 07:51:52;;;;;;;31.05;29.15;;;;;;;;;;4915820;28;20408;-95
2024/03/25 07:54:21;;;;;;;31.00;29.10;;;;;;;;;;4975457;28;20039;-93
2024/03/25 07:56:54;;;;;;;33.05;31.13;;;;;;;;;;4975712;28;20034;-93
2024/03/25 07:59:26;;;;;;;34.42;32.40;;;;;;;;;;4982074;28;20030;-91
2024/03/25 08:01:58;;;;;;;30.55;28.55;;;;;;;;;;4982313;28;20030;-95
2024/03/25 08:04:27;;;;;;;50.88;48.08;;;;;;;;;;4976816;28;20075;-96
2024/03/25 08:06:56;;;;;;;53.10;50.13;;;;;;;;;;4975408;28;20125;-96
2024/03/25 08:09:22;;;;;;;52.80;49.90;;;;;;;;;;4977926;28;20476;-90
2024/03/25 08:11:49;;;;;;;28.25;26.55;;;;;;;;;;4978867;28;20395;-94
2024/03/25 08:14:15;;;;;;;45.75;43.05;;;;;;;;;;4983258;28;20072;-90
2024/03/25 08:16:44;;;;;;;54.95;51.70;;;;;;;;;;4982813;28;20376;-92
2024/03/25 08:19:13;;;;;;;59.30;56.00;;;;;;;;;;4978519;28;20022;-92
2024/03/25 08:21:40;;;;;;;50.58;47.42;;;;;;;;;;4978003;28;20030;-94
2024/03/25 08:24:06;;;;;;;47.78;45.10;;;;;;;;;;4978193;28;20034;-91
2024/03/25 08:26:35;;;;;;;54.45;50.75;;;;;;;;;;4978408;28;20027;-91
2024/03/25 08:29:04;;;;;;;49.97;47.08;;;;;;;;;;4979001;28;20472;-92
2024/03/25 08:31:33;;;;;;;48.17;45.47;;;;;;;;;;4978384;28;20034;-92
2024/03/25 08:34:09;;;;;;;;;;;;;;;;;;;;;
2024/03/25 08:36:39;;;;;;;56.63;53.55;;;;;;;;;;4991567;28;20117;-94
2024/03/25 08:39:06;;;;;;;47.33;44.65;;;;;;;;;;4982763;28;20033;-94
2024/03/25 08:41:35;;;;;;;49.08;46.20;;;;;;;;;;4977936;28;20097;-92
2024/03/25 08:44:07;;;;;;;64.65;61.05;;;;;;;;;;4978030;28;20121;-94
2024/03/25 08:46:39;;;;;;;45.15;42.58;;;;;;;;;;4978271;28;20022;-93
2024/03/25 08:49:20;;;;;;;56.08;52.83;;;;;;;;;;4979120;28;20031;-95
2024/03/25 08:51:47;;;;;;;57.58;54.38;;;;;;;;;;4979117;28;20018;-94
2024/03/25 08:54:16;;;;;;;56.15;52.97;;;;;;;;;;4982469;28;20022;-94
2024/03/25 08:56:45;;;;;;;45.42;42.97;;;;;;;;;;4983547;28;20098;-92
2024/03/25 08:59:11;;;;;;;48.33;45.47;;;;;;;;;;4978131;28;20026;-94
2024/03/25 09:01:38;;;;;;;44.92;42.28;;;;;;;;;;4978015;28;20057;-93
2024/03/25 09:04:07;;;;;;;41.83;39.42;;;;;;;;;;4977682;28;20121;-94
2024/03/25 09:06:33;;;;;;;38.15;35.95;;;;;;;;;;4977738;28;20030;-91
2024/03/25 09:12:01;;;;;;;41.45;39.08;;;;;;;;;;5001490;28;20045;-95
2024/03/25 09:14:33;;;;;;;45.15;42.45;;;;;;;;;;5012158;23;20039;-96
2024/03/25 09:16:59;;;;;;;40.50;38.28;;;;;;;;;;4970603;28;20006;-95
2024/03/25 09:19:26;;;;;;;47.60;44.95;;;;;;;;;;4962921;28;20027;-95
2024/03/25 09:21:52;;;;;;;44.33;41.78;;;;;;;;;;4958726;28;20035;-92
2024/03/25 09:24:19;;;;;;;36.95;34.90;;;;;;;;;;4958949;28;20047;-92
2024/03/25 09:26:56;;;;;;;33.78;31.70;;;;;;;;;;4960324;28;20053;-94
2024/03/25 09:29:22;;;;;;;35.15;33.10;;;;;;;;;;4996868;28;20019;-93
2024/03/25 09:31:58;;;;;;;37.22;34.92;;;;;;;;;;4988866;28;20403;-94
2024/03/25 09:34:24;;;;;;;28.13;26.33;;;;;;;;;;4981262;28;20035;-93
2024/03/25 09:36:54;;;;;;;35.88;33.58;;;;;;;;;;4986352;28;20026;-95
2024/03/25 09:39:20;;;;;;;28.42;26.73;;;;;;;;;;4991043;28;20014;-94
2024/03/25 09:41:55;;;;;;;31.15;29.13;;;;;;;;;;5005764;28;20030;-95
2024/03/25 09:44:36;;;;;;;30.67;28.80;;;;;;;;;;4998232;28;20042;-95
2024/03/25 09:47:05;;;;;;;30.10;28.27;;;;;;;;;;4988251;28;20039;-94
2024/03/25 09:49:44;;;;;;;32.97;30.98;;;;;;;;;;4969543;28;20038;-94
2024/03/25 09:52:11;;;;;;;37.35;35.10;;;;;;;;;;5008360;28;20042;-95
2024/03/25 09:54:37;;;;;;;30.05;28.38;;;;;;;;;;4985620;28;20034;-96
2024/03/25 09:57:04;;;;;;;30.30;28.60;;;;;;;;;;4991005;28;20065;-94
2024/03/25 09:59:40;;;;;;;39.30;36.88;;;;;;;;;;4981495;28;20033;-93
2024/03/25 10:02:11;;;;;;;29.25;27.52;;;;;;;;;;4984769;28;20026;-93
2024/03/25 10:04:54;;;;;;;30.60;28.83;;;;;;;;;;4985796;28;20034;-94
2024/03/25 10:07:27;;;;;;;37.63;35.50;;;;;;;;;;4984557;28;20069;-95
2024/03/25 10:09:56;;;;;;;35.05;33.03;;;;;;;;;;4987082;28;20045;-94
2024/03/25 10:12:43;;;;;;;26.55;25.05;;;;;;;;;;4987462;28;20038;-96
2024/03/25 10:15:09;;;;;;;36.05;34.10;;;;;;;;;;5011885;28;20058;-95
2024/03/25 10:17:40;;;;;;;31.52;29.83;;;;;;;;;;5011766;28;20050;-96
2024/03/25 10:20:51;;;;;;;27.10;25.60;;;;;;;;;;5003512;28;20094;-96
2024/03/25 10:23:21;;;;;;;23.13;21.80;;;;;;;;;;4946951;29;20051;-96
2024/03/25 10:26:13;;;;;;;19.23;18.13;;;;;;;;;;4979308;28;20138;-95
2024/03/25 10:29:16;;;;;;;26.25;24.63;;;;;;;;;;4962178;28;20030;-96
2024/03/25 10:31:43;;;;;;;19.85;18.58;;;;;;;;;;4898127;29;20099;-95
2024/03/25 10:34:14;;;;;;;20.35;19.02;;;;;;;;;;4894945;29;20486;-95
2024/03/25 10:37:02;;;;;;;23.20;21.75;;;;;;;;;;4901193;29;20435;-96
2024/03/25 10:39:34;;;;;;;25.88;24.38;;;;;;;;;;4900215;29;20021;-95
2024/03/25 10:42:04;;;;;;;;;;;;;;;;;;4944194;29;20066;-93
2024/03/25 10:44:30;;;;;;;30.08;28.35;;;;;;;;;;4941619;28;19923;-95
2024/03/25 10:47:06;;;;;;;29.70;27.92;;;;;;;;;;4966211;28;20041;-93
2024/03/25 10:49:35;;;;;;;33.85;31.83;;;;;;;;;;4977801;28;20030;-93
2024/03/25 10:52:03;;;;;;;32.20;30.38;;;;;;;;;;4964675;28;20472;-94
2024/03/25 10:54:33;;;;;;;29.45;27.75;;;;;;;;;;4963610;28;20018;-95
2024/03/25 10:57:04;;;;;;;32.17;30.27;;;;;;;;;;4961144;28;20388;-95
2024/03/25 10:59:37;;;;;;;31.20;29.40;;;;;;;;;;4959430;28;20125;-92
2024/03/25 11:02:09;;;;;;;33.03;30.67;;;;;;;;;;4974937;28;20117;-95
2024/03/25 11:04:36;;;;;;;28.60;26.77;;;;;;;;;;4960919;28;20127;-94
2024/03/25 11:07:16;;;;;;;32.42;30.55;;;;;;;;;;4959970;28;20058;-91
2024/03/25 11:09:51;;;;;;;32.83;30.90;;;;;;;;;;4963117;28;20034;-94
2024/03/25 11:12:17;;;;;;;29.98;28.27;;;;;;;;;;4984039;28;20070;-93
2024/03/25 11:17:32;;;;;;;27.35;25.75;;;;;;;;;;4961282;28;20082;-92
2024/03/25 11:20:18;;;;;;;31.45;29.65;;;;;;;;;;4946155;29;20037;-93
2024/03/25 11:23:21;;;;;;;28.30;26.52;;;;;;;;;;4939983;29;20412;-93
2024/03/25 11:25:55;;;;;;;27.75;26.15;;;;;;;;;;4844502;29;20046;-94
2024/03/25 11:28:27;;;;;;;27.35;25.73;;;;;;;;;;4877723;29;20033;-92
2024/03/25 11:30:57;;;;;;;30.42;28.63;;;;;;;;;;4884988;29;20445;-94
2024/03/25 11:33:29;;;;;;;29.25;27.48;;;;;;;;;;4884764;29;20025;-91
2024/03/25 11:36:24;;;;;;;29.42;27.67;;;;;;;;;;4910265;29;20051;-92
2024/03/25 11:44:59;;;;;;;64.05;60.30;;;;;;;;;;4917990;29;20180;-93
2024/03/25 11:47:26;;;;;;;57.65;54.40;;;;;;;;;;4902536;29;20024;-91
2024/03/25 11:49:52;;;;;;;52.65;49.70;;;;;;;;;;4919506;29;20092;-92
2024/03/25 11:52:19;;;;;;;51.97;48.97;;;;;;;;;;4883583;29;20076;-92
2024/03/25 11:54:47;;;;;;;35.47;33.20;;;;;;;;;;4883678;29;20039;-94
2024/03/25 11:57:17;;;;;;;35.40;33.28;;;;;;;;;;4912965;29;20035;-92
2024/03/25 11:59:52;;;;;;;29.20;27.45;;;;;;;;;;4921408;29;20134;-94
2024/03/25 12:02:25;;;;;;;31.80;30.02;;;;;;;;;;4921120;29;20036;-92
2024/03/25 12:04:54;;;;;;;31.60;29.73;;;;;;;;;;4922509;29;20047;-93
2024/03/25 12:07:28;;;;;;;33.22;30.63;;;;;;;;;;4922311;29;20465;-93
2024/03/25 12:12:51;;;;;;;48.47;45.85;;;;;;;;;;4977167;28;20515;-92
2024/03/25 12:15:21;;;;;;;37.13;35.10;;;;;;;;;;4969209;28;20069;-91
2024/03/25 12:17:51;;;;;;;24.88;23.48;;;;;;;;;;4979296;28;20051;-93
2024/03/25 12:20:17;;;;;;;44.25;41.80;;;;;;;;;;4980068;28;20051;-93
2024/03/25 12:22:49;;;;;;;46.70;44.15;;;;;;;;;;4978811;28;20121;-93
2024/03/25 12:25:22;;;;;;;31.73;29.77;;;;;;;;;;4978705;28;20395;-93
2024/03/25 12:27:58;;;;;;;73.20;69.18;;;;;;;;;;4963575;28;20118;-92
2024/03/25 12:30:32;;;;;;;39.50;37.33;;;;;;;;;;4960773;28;20030;-94
2024/03/25 12:36:00;;;;;;;50.72;47.80;;;;;;;;;;4968297;28;20038;-94
2024/03/25 12:38:38;;;;;;;31.95;30.02;;;;;;;;;;4966141;28;20041;-93
2024/03/25 12:43:48;;;;;;;34.75;32.65;;;;;;;;;;5004922;28;20062;-93
2024/03/25 12:46:20;;;;;;;38.17;36.08;;;;;;;;;;4953007;28;20022;-94
2024/03/25 12:48:46;;;;;;;45.90;43.05;;;;;;;;;;4981017;28;20030;-92
2024/03/25 12:51:16;;;;;;;35.60;33.63;;;;;;;;;;4978916;28;20023;-95
2024/03/25 12:53:42;;;;;;;31.75;30.00;;;;;;;;;;4980408;28;20061;-96
2024/03/25 12:56:16;;;;;;;45.45;43.05;;;;;;;;;;4990656;28;20041;-92
2024/03/25 12:59:19;;;;;;;43.38;41.00;;;;;;;;;;4994533;28;20034;-93
2024/03/25 13:01:48;;;;;;;48.72;46.13;;;;;;;;;;4912427;29;20047;-96
2024/03/25 13:04:21;;;;;;;58.97;55.85;;;;;;;;;;4940601;29;20031;-93
2024/03/25 13:06:47;;;;;;;56.57;53.57;;;;;;;;;;4939640;29;20126;-91
2024/03/25 13:09:13;;;;;;;44.13;41.72;;;;;;;;;;4939290;29;20561;-93
2024/03/25 13:11:39;;;;;;;42.17;39.83;;;;;;;;;;4939678;29;20059;-94
2024/03/25 13:14:11;;;;;;;36.53;34.45;;;;;;;;;;4939465;29;20059;-94
2024/03/25 13:16:44;;;;;;;33.25;31.33;;;;;;;;;;4939324;29;20039;-91
2024/03/25 13:19:10;;;;;;;29.60;27.95;;;;;;;;;;4939619;29;20038;-93
2024/03/25 13:21:36;;;;;;;35.90;33.90;;;;;;;;;;4936877;29;20535;-94
2024/03/25 13:24:02;;;;;;;31.45;29.75;;;;;;;;;;4942852;29;20039;-94
2024/03/25 13:26:28;;;;;;;35.53;33.45;;;;;;;;;;4939508;29;20023;-94
2024/03/25 13:29:03;;;;;;;33.20;31.38;;;;;;;;;;4942702;29;20041;-93
2024/03/25 13:31:30;;;;;;;32.95;31.10;;;;;;;;;;4941867;29;20031;-91
2024/03/25 13:33:59;;;;;;;35.70;33.72;;;;;;;;;;4940542;29;20023;-92
2024/03/25 13:36:25;;;;;;;34.45;32.53;;;;;;;;;;4941009;29;20028;-94
2024/03/25 13:38:53;;;;;;;36.33;34.22;;;;;;;;;;4942372;29;20063;-93
2024/03/25 13:41:23;;;;;;;34.75;32.70;;;;;;;;;;4941829;28;20392;-95
2024/03/25 13:43:56;;;;;;;33.67;31.83;;;;;;;;;;4922875;29;20048;-95
2024/03/25 13:46:22;;;;;;;32.38;30.52;;;;;;;;;;4953597;28;20027;-93
2024/03/25 13:49:00;;;;;;;33.97;32.10;;;;;;;;;;4969912;28;20015;-96
2024/03/25 13:51:30;;;;;;;35.42;33.38;;;;;;;;;;4970042;28;20086;-95
2024/03/25 13:54:32;;;;;;;35.53;33.45;;;;;;;;;;4965329;28;20162;-96
2024/03/25 13:56:59;;;;;;;38.38;36.28;;;;;;;;;;4980878;28;20031;-92
2024/03/25 13:59:25;;;;;;;33.30;31.35;;;;;;;;;;4960350;28;20396;-94
2024/03/25 14:01:53;;;;;;;32.95;31.05;;;;;;;;;;5050816;23;20088;-94
2024/03/25 14:04:45;;;;;;;31.02;29.33;;;;;;;;;;4946144;28;20055;-95
2024/03/25 14:07:11;;;;;;;31.83;30.02;;;;;;;;;;4962702;28;20027;-94
2024/03/25 14:09:56;;;;;;;33.20;31.35;;;;;;;;;;4954289;28;20086;-93
2024/03/25 14:12:23;;;;;;;47.58;45.00;;;;;;;;;;4939760;29;20027;-93
2024/03/25 14:14:49;;;;;;;43.60;41.22;;;;;;;;;;4940331;29;20042;-93
2024/03/25 14:17:15;;;;;;;52.45;49.60;;;;;;;;;;4939800;29;20059;-93
2024/03/25 14:19:42;;;;;;;49.60;46.80;;;;;;;;;;4939215;29;20024;-95
2024/03/25 14:22:08;;;;;;;59.20;56.08;;;;;;;;;;4943153;29;20027;-95
2024/03/25 14:24:34;;;;;;;48.75;46.13;;;;;;;;;;4944024;29;20039;-96
2024/03/25 14:27:00;;;;;;;51.22;48.38;;;;;;;;;;4951149;29;20072;-96
2024/03/25 14:29:26;;;;;;;51.15;48.33;;;;;;;;;;4955222;29;20046;-94
2024/03/25 14:31:53;;;;;;;49.83;47.00;;;;;;;;;;4944850;29;20027;-94
2024/03/25 14:34:55;;;;;;;;;;;;;;;;;;;;;
2024/03/25 14:37:27;;;;;;;57.60;54.33;;;;;;;;;;4903389;29;20047;-92
2024/03/25 14:40:01;;;;;;;43.13;40.75;;;;;;;;;;4897080;29;20128;-93
2024/03/25 14:42:30;;;;;;;54.08;51.08;;;;;;;;;;4934137;29;20122;-95
2024/03/25 14:44:56;;;;;;;50.90;47.85;;;;;;;;;;4961664;28;20070;-94
2024/03/25 14:47:22;;;;;;;49.85;46.95;;;;;;;;;;4963595;29;20024;-95
2024/03/25 14:49:51;;;;;;;53.72;50.85;;;;;;;;;;4966501;28;20121;-93
2024/03/25 14:52:21;;;;;;;56.28;53.22;;;;;;;;;;4963264;28;20022;-94
2024/03/25 14:55:10;;;;;;;;;;;;;;;;;;;;;
2024/03/25 14:57:42;;;;;;;52.03;49.20;;;;;;;;;;5026932;23;20138;-93
2024/03/25 15:00:20;;;;;;;57.22;53.90;;;;;;;;;;4952841;29;20038;-94
2024/03/25 15:02:49;;;;;;;47.35;44.80;;;;;;;;;;4956106;29;20059;-93
2024/03/25 15:05:15;;;;;;;56.55;53.50;;;;;;;;;;4949235;29;20511;-92
2024/03/25 15:07:49;;;;;;;72.88;69.07;;;;;;;;;;4948051;29;20027;-93
2024/03/25 15:10:17;;;;;;;82.32;78.05;;;;;;;;;;4945317;29;20032;-92
2024/03/25 15:12:51;;;;;;;67.85;64.25;;;;;;;;;;4931297;29;20038;-94
2024/03/25 15:15:17;;;;;;;53.50;50.63;;;;;;;;;;4947513;29;20406;-91
2024/03/25 15:17:43;;;;;;;67.57;63.70;;;;;;;;;;4942406;29;20031;-93
2024/03/25 15:20:15;;;;;;;75.32;71.30;;;;;;;;;;4942006;29;20437;-94
2024/03/25 15:22:43;;;;;;;56.60;53.47;;;;;;;;;;4942073;29;20043;-94
2024/03/25 15:25:11;;;;;;;52.42;49.53;;;;;;;;;;4945264;29;20031;-91
2024/03/25 15:27:37;;;;;;;73.20;69.30;;;;;;;;;;4942481;29;20027;-95